createdAt,value
2023-04-14T00:00:17.512Z,35.47
2023-04-14T00:02:44.646Z,33.80
2023-04-14T00:05:11.808Z,32.40
2023-04-14T00:07:38.679Z,25.15
2023-04-14T00:10:06.229Z,28.92
2023-04-14T00:12:33.096Z,33.22
2023-04-14T00:14:59.809Z,25.45
2023-04-14T00:17:26.644Z,27.85
2023-04-14T00:19:53.358Z,34.85
2023-04-14T00:22:21.886Z,29.80
2023-04-14T00:24:50.760Z,36.13
2023-04-14T00:27:17.616Z,36.67
2023-04-14T00:29:44.840Z,37.85
2023-04-14T00:32:11.661Z,31.95
2023-04-14T00:34:38.430Z,36.05
2023-04-14T00:37:05.256Z,32.08
2023-04-14T00:39:32.044Z,32.25
2023-04-14T00:42:03.950Z,37.58
2023-04-14T00:44:30.800Z,33.22
2023-04-14T00:47:04.187Z,30.15
2023-04-14T00:49:31.361Z,39.83
2023-04-14T00:51:58.146Z,35.53
2023-04-14T00:54:26.616Z,33.33
2023-04-14T00:56:54.059Z,29.85
2023-04-14T00:59:21.015Z,36.67
2023-04-14T01:01:48.188Z,30.73
2023-04-14T01:04:20.007Z,22.88
2023-04-14T01:06:46.824Z,26.83
2023-04-14T01:09:15.816Z,28.02
2023-04-14T01:12:02.766Z,28.92
2023-04-14T01:14:44.178Z,22.25
2023-04-14T01:17:15.836Z,21.35
2023-04-14T01:19:55.928Z,21.55
2023-04-14T01:22:26.614Z,22.45
2023-04-14T01:25:22.228Z,23.77
2023-04-14T01:27:57.900Z,24.00
2023-04-14T01:30:35.484Z,23.95
2023-04-14T01:33:05.849Z,24.02
2023-04-14T01:35:36.893Z,29.77
2023-04-14T01:38:08.722Z,26.17
2023-04-14T01:40:36.382Z,26.80
2023-04-14T01:43:09.456Z,31.52
2023-04-14T01:45:43.394Z,24.20
2023-04-14T01:48:11.865Z,21.27
2023-04-14T01:50:43.618Z,26.55
2023-04-14T01:53:13.515Z,24.25
2023-04-14T01:55:44.227Z,25.65
2023-04-14T01:58:13.702Z,35.72
2023-04-14T02:00:41.132Z,26.17
2023-04-14T02:03:08.250Z,22.88
2023-04-14T02:05:36.972Z,28.52
2023-04-14T02:08:06.775Z,27.00
2023-04-14T02:10:34.110Z,33.28
2023-04-14T02:13:04.322Z,31.80
2023-04-14T02:15:32.373Z,35.28
2023-04-14T02:17:59.451Z,31.50
2023-04-14T02:20:28.080Z,32.20
2023-04-14T02:22:54.811Z,27.90
2023-04-14T02:25:24.303Z,30.88
2023-04-14T02:27:51.004Z,30.35
2023-04-14T02:30:25.851Z,31.42
2023-04-14T02:33:07.000Z,24.35
2023-04-14T02:35:46.930Z,34.85
2023-04-14T02:38:19.675Z,33.50
2023-04-14T02:40:46.808Z,32.28
2023-04-14T02:43:20.201Z,28.45
2023-04-14T02:45:49.135Z,28.50
2023-04-14T02:48:18.358Z,25.08
2023-04-14T02:50:48.802Z,30.00
2023-04-14T02:53:22.754Z,31.05
2023-04-14T02:55:53.418Z,26.20
2023-04-14T02:58:21.386Z,30.42
2023-04-14T03:00:50.249Z,23.20
2023-04-14T03:03:18.534Z,27.40
2023-04-14T03:05:46.260Z,27.40
2023-04-14T03:08:16.707Z,28.63
2023-04-14T03:10:48.401Z,34.50
2023-04-14T03:13:18.136Z,42.10
2023-04-14T03:15:46.160Z,33.22
2023-04-14T03:18:14.485Z,32.92
2023-04-14T03:20:43.396Z,46.22
2023-04-14T03:23:12.286Z,37.10
2023-04-14T03:25:46.703Z,37.97
2023-04-14T03:28:20.477Z,37.05
2023-04-14T03:30:51.463Z,45.28
2023-04-14T03:33:22.864Z,66.40
2023-04-14T03:35:50.695Z,33.05
2023-04-14T03:38:18.747Z,32.92
2023-04-14T03:40:47.843Z,154.50
2023-04-14T03:43:22.449Z,50.50
2023-04-14T03:45:56.352Z,41.88
2023-04-14T03:48:26.197Z,42.10
2023-04-14T03:50:54.838Z,34.95
2023-04-14T03:53:24.767Z,59.78
2023-04-14T03:55:53.022Z,42.50
2023-04-14T03:58:21.482Z,35.47
2023-04-14T04:00:50.812Z,54.90
2023-04-14T04:03:18.624Z,49.65
2023-04-14T04:05:46.362Z,45.22
2023-04-14T04:08:13.354Z,86.22
2023-04-14T04:10:41.464Z,35.20
2023-04-14T04:13:11.405Z,60.78
2023-04-14T04:15:39.726Z,39.05
2023-04-14T04:18:07.782Z,60.33
2023-04-14T04:20:37.524Z,57.33
2023-04-14T04:23:06.943Z,38.30
2023-04-14T04:25:35.774Z,39.45
2023-04-14T04:28:11.548Z,59.30
2023-04-14T04:30:41.667Z,44.80
2023-04-14T04:33:10.383Z,65.97
2023-04-14T04:35:37.649Z,117.18
2023-04-14T04:38:11.280Z,24.85
2023-04-14T04:40:40.283Z,42.97
2023-04-14T04:43:14.555Z,29.65
2023-04-14T04:46:05.506Z,113.55
2023-04-14T04:48:32.357Z,45.92
2023-04-14T04:50:59.111Z,41.25
2023-04-14T04:53:25.826Z,125.72
2023-04-14T04:55:52.561Z,28.95
2023-04-14T04:58:19.301Z,50.40
2023-04-14T05:00:46.467Z,27.27
2023-04-14T05:03:13.216Z,39.53
2023-04-14T05:05:40.198Z,53.38
2023-04-14T05:08:07.807Z,23.17
2023-04-14T05:10:36.569Z,51.78
2023-04-14T05:13:03.625Z,17.23
2023-04-14T05:15:30.534Z,30.85
2023-04-14T05:17:59.145Z,32.10
2023-04-14T05:20:26.001Z,50.33
2023-04-14T05:22:53.382Z,66.78
2023-04-14T05:25:20.088Z,29.00
2023-04-14T05:27:46.813Z,18.60
2023-04-14T05:30:13.722Z,31.25
2023-04-14T05:32:40.476Z,21.58
2023-04-14T05:35:07.518Z,23.65
2023-04-14T05:37:35.698Z,32.08
2023-04-14T05:40:03.759Z,42.97
2023-04-14T05:42:30.835Z,25.45
2023-04-14T05:44:57.586Z,29.27
2023-04-14T05:47:24.352Z,23.88
2023-04-14T05:49:51.256Z,33.10
2023-04-14T05:52:18.053Z,20.15
2023-04-14T05:54:44.768Z,33.88
2023-04-14T05:57:11.458Z,22.58
2023-04-14T05:59:38.200Z,40.65
2023-04-14T06:02:07.326Z,25.05
2023-04-14T06:04:34.407Z,34.40
2023-04-14T06:07:02.746Z,22.88
2023-04-14T06:09:29.552Z,36.97
2023-04-14T06:11:56.697Z,41.53
2023-04-14T06:14:23.589Z,34.40
2023-04-14T06:16:51.260Z,42.20
2023-04-14T06:19:20.910Z,31.92
2023-04-14T06:21:47.728Z,29.77
2023-04-14T06:24:14.441Z,35.85
2023-04-14T06:26:41.124Z,33.75
2023-04-14T06:29:07.956Z,28.70
2023-04-14T06:31:35.014Z,23.00
2023-04-14T06:34:01.831Z,23.92
2023-04-14T06:36:28.872Z,31.83
2023-04-14T06:38:57.125Z,26.52
2023-04-14T06:41:24.322Z,26.17
2023-04-14T06:43:51.161Z,30.90
2023-04-14T06:46:18.136Z,25.38
2023-04-14T06:48:44.934Z,19.77
2023-04-14T06:51:12.342Z,24.85
2023-04-14T06:53:39.521Z,21.50
2023-04-14T06:56:06.949Z,23.63
2023-04-14T06:58:33.986Z,20.88
2023-04-14T07:01:02.102Z,24.60
2023-04-14T07:03:30.812Z,17.33
2023-04-14T07:06:04.671Z,21.52
2023-04-14T07:08:32.905Z,25.38
2023-04-14T07:11:01.797Z,24.85
2023-04-14T07:13:29.302Z,18.05
2023-04-14T07:15:56.151Z,30.42
2023-04-14T07:18:22.908Z,21.33
2023-04-14T07:20:52.548Z,24.35
2023-04-14T07:23:19.275Z,17.20
2023-04-14T07:25:53.330Z,21.98
2023-04-14T07:28:20.645Z,21.42
2023-04-14T07:30:47.531Z,23.23
2023-04-14T07:33:14.617Z,16.23
2023-04-14T07:35:48.207Z,17.40
2023-04-14T07:38:26.353Z,26.67
2023-04-14T07:40:53.130Z,19.25
2023-04-14T07:43:19.868Z,29.10
2023-04-14T07:45:46.699Z,22.27
2023-04-14T07:48:13.477Z,18.30
2023-04-14T07:50:40.214Z,19.55
2023-04-14T07:53:07.034Z,25.10
2023-04-14T07:55:33.829Z,24.73
2023-04-14T07:58:00.592Z,25.88
2023-04-14T08:00:27.488Z,19.48
2023-04-14T08:02:54.739Z,22.17
2023-04-14T08:05:21.570Z,27.83
2023-04-14T08:07:49.491Z,21.00
2023-04-14T08:10:16.241Z,20.65
2023-04-14T08:12:42.985Z,35.33
2023-04-14T08:15:09.846Z,22.20
2023-04-14T08:17:36.586Z,19.90
2023-04-14T08:20:03.516Z,29.85
2023-04-14T08:22:30.426Z,35.25
2023-04-14T08:24:57.321Z,24.65
2023-04-14T08:27:24.005Z,21.42
2023-04-14T08:29:51.687Z,21.48
2023-04-14T08:32:18.532Z,21.83
2023-04-14T08:35:36.837Z,27.10
2023-04-14T08:37:31.917Z,23.45
2023-04-14T08:39:58.654Z,22.85
2023-04-14T08:42:26.058Z,26.77
2023-04-14T08:44:53.444Z,24.88
2023-04-14T08:47:21.658Z,19.23
2023-04-14T08:49:56.964Z,20.83
2023-04-14T08:52:27.853Z,18.90
2023-04-14T08:54:56.584Z,16.83
2023-04-14T08:57:26.167Z,22.17
2023-04-14T08:59:56.421Z,17.08
2023-04-14T09:02:23.649Z,37.03
2023-04-14T09:04:50.801Z,22.70
2023-04-14T09:07:19.346Z,24.80
2023-04-14T09:09:46.080Z,18.58
2023-04-14T09:12:17.168Z,21.40
2023-04-14T09:14:44.751Z,20.27
2023-04-14T09:17:11.722Z,21.05
2023-04-14T09:20:38.936Z,20.42
2023-04-14T09:22:26.564Z,15.00
2023-04-14T09:24:53.273Z,21.15
2023-04-14T09:27:20.209Z,18.17
2023-04-14T09:29:47.239Z,15.18
2023-04-14T09:32:14.172Z,15.00
2023-04-14T09:34:55.737Z,16.73
2023-04-14T09:37:24.483Z,19.55
2023-04-14T09:39:52.168Z,20.38
2023-04-14T09:42:19.095Z,14.43
2023-04-14T09:44:58.897Z,13.30
2023-04-14T09:47:26.550Z,15.75
2023-04-14T09:49:57.585Z,18.70
2023-04-14T09:52:37.617Z,17.15
2023-04-14T09:55:14.684Z,14.85
2023-04-14T09:57:42.642Z,20.85
2023-04-14T10:00:27.492Z,20.08
2023-04-14T10:02:56.251Z,23.20
2023-04-14T10:05:27.422Z,18.58
2023-04-14T10:07:54.589Z,17.80
2023-04-14T10:10:22.530Z,13.07
2023-04-14T10:12:49.442Z,15.57
2023-04-14T10:15:17.266Z,7.03
2023-04-14T10:17:44.034Z,14.38
2023-04-14T10:20:11.188Z,20.52
2023-04-14T10:22:40.881Z,18.77
2023-04-14T10:25:10.908Z,15.65
2023-04-14T10:27:38.327Z,14.70
2023-04-14T10:30:05.975Z,19.17
2023-04-14T10:32:34.549Z,11.95
2023-04-14T10:35:10.050Z,11.13
2023-04-14T10:37:37.134Z,17.40
2023-04-14T10:40:06.840Z,17.88
2023-04-14T10:42:55.064Z,16.92
2023-04-14T10:45:22.199Z,13.13
2023-04-14T10:47:50.211Z,16.05
2023-04-14T10:50:18.288Z,10.07
2023-04-14T10:52:52.099Z,18.85
2023-04-14T10:55:25.016Z,11.02
2023-04-14T10:57:54.435Z,12.95
2023-04-14T11:00:25.184Z,12.38
2023-04-14T11:03:03.703Z,17.80
2023-04-14T11:05:33.576Z,15.73
2023-04-14T11:08:03.088Z,14.68
2023-04-14T11:10:33.162Z,12.55
2023-04-14T11:13:08.381Z,19.52
2023-04-14T11:15:57.385Z,15.07
2023-04-14T11:18:30.294Z,8.27
2023-04-14T11:21:06.960Z,9.30
2023-04-14T11:23:34.783Z,13.02
2023-04-14T11:26:02.033Z,10.65
2023-04-14T11:28:32.722Z,14.00
2023-04-14T11:31:00.926Z,14.80
2023-04-14T11:33:31.457Z,8.98
2023-04-14T11:35:58.629Z,12.73
2023-04-14T11:38:25.512Z,15.10
2023-04-14T11:40:52.442Z,10.77
2023-04-14T11:43:22.628Z,20.42
2023-04-14T11:45:50.677Z,12.88
2023-04-14T11:48:18.934Z,12.77
2023-04-14T11:50:47.326Z,9.98
2023-04-14T11:53:16.393Z,11.90
2023-04-14T11:55:47.960Z,10.25
2023-04-14T11:58:18.235Z,7.03
2023-04-14T12:00:44.978Z,9.68
2023-04-14T12:03:11.928Z,8.18
2023-04-14T12:05:39.184Z,12.77
2023-04-14T12:08:08.716Z,6.95
2023-04-14T12:10:40.005Z,7.85
2023-04-14T12:13:08.369Z,5.13
2023-04-14T12:15:37.142Z,10.90
2023-04-14T12:18:13.686Z,10.98
2023-04-14T12:21:09.776Z,6.95
2023-04-14T12:23:39.968Z,10.10
2023-04-14T12:26:12.905Z,9.63
2023-04-14T12:28:41.508Z,16.70
2023-04-14T12:31:09.119Z,24.02
2023-04-14T12:33:36.014Z,9.55
2023-04-14T12:36:12.656Z,13.63
2023-04-14T12:38:39.598Z,10.32
2023-04-14T12:41:06.324Z,12.25
2023-04-14T12:43:35.444Z,6.38
2023-04-14T12:46:06.273Z,16.00
2023-04-14T12:48:39.482Z,9.68
2023-04-14T12:53:39.754Z,8.75
2023-04-14T12:56:11.608Z,12.55
2023-04-14T12:58:39.899Z,8.30
2023-04-14T13:01:10.650Z,7.40
2023-04-14T13:03:49.597Z,4.72
2023-04-14T13:06:21.433Z,8.98
2023-04-14T13:08:49.713Z,11.63
2023-04-14T13:11:18.339Z,12.88
2023-04-14T13:13:45.738Z,13.25
2023-04-14T13:16:16.775Z,9.15
2023-04-14T13:18:47.115Z,4.97
2023-04-14T13:21:14.118Z,11.48
2023-04-14T13:23:41.365Z,10.88
2023-04-14T13:26:08.402Z,8.57
2023-04-14T13:28:35.206Z,6.20
2023-04-14T13:31:02.571Z,7.53
2023-04-14T13:33:29.347Z,14.18
2023-04-14T13:35:56.474Z,9.18
2023-04-14T13:38:23.209Z,12.23
2023-04-14T13:40:49.971Z,12.07
2023-04-14T13:43:18.685Z,7.50
2023-04-14T13:45:46.270Z,11.07
2023-04-14T13:48:13.729Z,9.98
2023-04-14T13:50:40.521Z,9.15
2023-04-14T13:53:07.331Z,7.68
2023-04-14T13:55:35.912Z,7.45
2023-04-14T13:58:02.744Z,9.95
2023-04-14T14:00:29.424Z,10.43
2023-04-14T14:02:56.632Z,10.25
2023-04-14T14:05:23.679Z,8.52
2023-04-14T14:07:50.488Z,7.90
2023-04-14T14:10:17.240Z,10.80
2023-04-14T14:12:44.112Z,6.63
2023-04-14T14:15:11.379Z,12.48
2023-04-14T14:17:38.123Z,17.50
2023-04-14T14:20:05.354Z,8.95
2023-04-14T14:22:32.186Z,8.10
2023-04-14T14:25:14.939Z,8.77
2023-04-14T14:27:44.892Z,8.68
2023-04-14T14:30:12.079Z,10.98
2023-04-14T14:32:38.879Z,3.00
2023-04-14T14:35:06.148Z,8.93
2023-04-14T14:37:32.925Z,7.25
2023-04-14T14:39:59.704Z,12.07
2023-04-14T14:42:26.942Z,7.45
2023-04-14T14:44:54.293Z,16.95
2023-04-14T14:47:21.412Z,12.20
2023-04-14T14:49:59.034Z,7.80
2023-04-14T14:52:31.633Z,15.27
2023-04-14T14:54:58.442Z,5.13
2023-04-14T14:57:25.670Z,4.20
2023-04-14T14:59:52.805Z,8.63
2023-04-14T15:02:20.997Z,12.65
2023-04-14T15:04:48.137Z,6.80
2023-04-14T15:07:14.878Z,6.30
2023-04-14T15:09:41.575Z,7.47
2023-04-14T15:12:08.635Z,10.50
2023-04-14T15:14:35.905Z,11.10
2023-04-14T15:17:03.042Z,11.10
2023-04-14T15:19:29.715Z,10.85
2023-04-14T15:21:56.404Z,7.05
2023-04-14T15:24:23.135Z,12.07
2023-04-14T15:26:49.833Z,7.65
2023-04-14T15:29:16.586Z,12.85
2023-04-14T15:31:43.441Z,6.00
2023-04-14T15:34:10.271Z,9.88
2023-04-14T15:36:37.303Z,7.43
2023-04-14T15:39:04.091Z,11.68
2023-04-14T15:41:30.974Z,11.00
2023-04-14T15:43:58.129Z,2.72
2023-04-14T15:46:24.973Z,9.02
2023-04-14T15:48:51.886Z,8.98
2023-04-14T15:51:18.665Z,7.88
2023-04-14T15:53:45.401Z,10.93
2023-04-14T15:56:12.471Z,6.60
2023-04-14T15:58:39.224Z,16.08
2023-04-14T16:01:08.915Z,6.32
2023-04-14T16:03:36.824Z,5.97
2023-04-14T16:06:06.694Z,8.02
2023-04-14T16:08:33.455Z,6.97
2023-04-14T16:11:00.236Z,7.80
2023-04-14T16:13:27.298Z,9.60
2023-04-14T16:15:54.085Z,5.30
2023-04-14T16:18:21.186Z,5.13
2023-04-14T16:20:50.236Z,10.73
2023-04-14T16:23:17.190Z,5.47
2023-04-14T16:25:50.712Z,5.95
2023-04-14T16:28:17.488Z,4.35
2023-04-14T16:30:45.725Z,8.82
2023-04-14T16:33:12.754Z,12.23
2023-04-14T16:35:39.648Z,6.35
2023-04-14T16:38:08.433Z,8.20
2023-04-14T16:40:35.948Z,11.60
2023-04-14T16:43:03.068Z,3.63
2023-04-14T16:45:33.105Z,7.20
2023-04-14T16:48:00.097Z,7.53
2023-04-14T16:50:27.426Z,5.30
2023-04-14T16:52:54.262Z,6.72
2023-04-14T16:55:21.161Z,3.67
2023-04-14T16:57:47.874Z,5.13
2023-04-14T17:00:14.960Z,3.38
2023-04-14T17:02:41.907Z,7.43
2023-04-14T17:05:10.461Z,5.82
2023-04-14T17:07:37.332Z,6.60
2023-04-14T17:10:04.430Z,3.47
2023-04-14T17:12:31.189Z,6.45
2023-04-14T17:15:00.166Z,5.75
2023-04-14T17:17:27.224Z,3.38
2023-04-14T17:19:55.188Z,3.35
2023-04-14T17:22:23.151Z,6.15
2023-04-14T17:24:50.650Z,8.27
2023-04-14T17:27:17.591Z,8.65
2023-04-14T17:29:44.454Z,5.82
2023-04-14T17:32:11.303Z,4.82
2023-04-14T17:34:38.571Z,7.13
2023-04-14T17:37:05.287Z,6.70
2023-04-14T17:39:31.944Z,6.78
2023-04-14T17:41:58.652Z,5.15
2023-04-14T17:44:32.559Z,6.10
2023-04-14T17:47:03.365Z,6.60
2023-04-14T17:49:30.622Z,6.78
2023-04-14T17:51:58.197Z,6.03
2023-04-14T17:54:26.285Z,15.07
2023-04-14T17:56:53.185Z,7.35
2023-04-14T17:59:20.424Z,7.88
2023-04-14T18:01:47.353Z,7.63
2023-04-14T18:04:14.319Z,8.75
2023-04-14T18:06:41.603Z,5.60
2023-04-14T18:09:09.201Z,10.32
2023-04-14T18:11:36.624Z,8.32
2023-04-14T18:14:04.005Z,5.68
2023-04-14T18:16:31.409Z,4.28
2023-04-14T18:18:58.237Z,6.05
2023-04-14T18:21:24.983Z,3.05
2023-04-14T18:28:51.591Z,5.00
2023-04-14T18:31:18.315Z,5.80
2023-04-14T18:33:45.130Z,7.53
2023-04-14T18:36:11.951Z,5.53
2023-04-14T18:38:38.802Z,8.35
2023-04-14T18:41:05.709Z,3.95
2023-04-14T18:43:33.185Z,9.77
2023-04-14T18:46:00.031Z,8.27
2023-04-14T18:48:27.607Z,7.40
2023-04-14T18:51:02.619Z,4.97
2023-04-14T18:53:29.538Z,12.18
2023-04-14T18:55:56.322Z,5.18
2023-04-14T18:58:23.831Z,6.28
2023-04-14T19:00:50.613Z,7.05
2023-04-14T19:03:18.506Z,7.53
2023-04-14T19:05:45.316Z,6.15
2023-04-14T19:08:12.204Z,10.82
2023-04-14T19:10:39.933Z,4.07
2023-04-14T19:13:06.777Z,7.03
2023-04-14T19:15:33.638Z,4.25
2023-04-14T19:18:01.039Z,4.05
2023-04-14T19:20:27.822Z,15.25
2023-04-14T19:22:54.559Z,8.32
2023-04-14T19:25:22.303Z,10.20
2023-04-14T19:27:49.376Z,6.93
2023-04-14T19:30:16.174Z,5.07
2023-04-14T19:32:42.924Z,6.57
2023-04-14T19:35:11.139Z,9.32
2023-04-14T19:37:38.556Z,6.78
2023-04-14T19:40:06.801Z,5.72
2023-04-14T19:42:33.743Z,11.77
2023-04-14T19:45:01.282Z,4.97
2023-04-14T19:47:28.246Z,12.07
2023-04-14T19:49:55.461Z,14.48
2023-04-14T19:52:22.430Z,8.85
2023-04-14T19:54:49.613Z,8.32
2023-04-14T19:57:16.736Z,5.45
2023-04-14T19:59:44.221Z,9.10
2023-04-14T20:02:13.148Z,7.20
2023-04-14T20:04:40.482Z,11.07
2023-04-14T20:07:07.622Z,8.38
2023-04-14T20:09:34.686Z,9.75
2023-04-14T20:12:04.317Z,9.25
2023-04-14T20:14:31.025Z,7.82
2023-04-14T20:16:57.803Z,11.30
2023-04-14T20:19:24.715Z,6.22
2023-04-14T20:21:51.514Z,9.05
2023-04-14T20:24:18.705Z,8.32
2023-04-14T20:26:45.454Z,10.23
2023-04-14T20:29:12.590Z,8.23
2023-04-14T20:31:41.523Z,10.48
2023-04-14T20:34:09.008Z,6.13
2023-04-14T20:36:37.559Z,7.32
2023-04-14T20:39:05.713Z,8.63
2023-04-14T20:41:36.324Z,8.32
2023-04-14T20:44:06.357Z,9.50
2023-04-14T20:46:34.343Z,9.18
2023-04-14T20:49:02.713Z,11.27
2023-04-14T20:51:29.864Z,9.18
2023-04-14T20:53:56.805Z,12.55
2023-04-14T20:56:27.189Z,8.65
2023-04-14T20:58:54.329Z,12.65
2023-04-14T21:01:21.303Z,11.93
2023-04-14T21:03:48.550Z,14.45
2023-04-14T21:06:16.015Z,15.10
2023-04-14T21:08:42.848Z,13.93
2023-04-14T21:11:15.596Z,12.00
2023-04-14T21:15:31.080Z,13.98
2023-04-14T21:16:32.757Z,13.45
2023-04-14T21:19:01.056Z,9.27
2023-04-14T21:21:28.028Z,16.30
2023-04-14T21:23:54.749Z,14.65
2023-04-14T21:26:21.881Z,13.30
2023-04-14T21:28:48.643Z,17.45
2023-04-14T21:31:15.761Z,15.73
2023-04-14T21:33:42.675Z,11.80
2023-04-14T21:36:10.660Z,14.68
2023-04-14T21:38:38.387Z,16.70
2023-04-14T21:41:05.804Z,12.98
2023-04-14T21:43:32.579Z,18.25
2023-04-14T21:45:59.404Z,11.65
2023-04-14T21:48:26.274Z,19.10
2023-04-14T21:50:52.946Z,13.38
2023-04-14T21:53:20.645Z,12.35
2023-04-14T21:55:47.402Z,13.93
2023-04-14T21:58:34.208Z,11.00
2023-04-14T22:01:01.611Z,18.40
2023-04-14T22:03:28.768Z,11.27
2023-04-14T22:05:55.683Z,12.43
2023-04-14T22:08:23.980Z,12.77
2023-04-14T22:10:51.928Z,9.68
2023-04-14T22:13:18.984Z,15.80
2023-04-14T22:15:45.859Z,11.25
2023-04-14T22:18:12.683Z,9.50
2023-04-14T22:20:39.784Z,11.90
2023-04-14T22:23:06.672Z,18.38
2023-04-14T22:25:34.756Z,10.45
2023-04-14T22:28:01.680Z,13.43
2023-04-14T22:30:28.451Z,13.05
2023-04-14T22:32:56.031Z,13.95
2023-04-14T22:35:23.185Z,13.02
2023-04-14T22:37:51.608Z,9.68
2023-04-14T22:40:18.320Z,9.77
2023-04-14T22:42:45.050Z,12.93
2023-04-14T22:45:11.852Z,9.20
2023-04-14T22:47:38.615Z,11.02
2023-04-14T22:50:06.349Z,12.15
2023-04-14T22:52:33.121Z,9.55
2023-04-14T22:54:59.802Z,10.35
2023-04-14T22:57:26.865Z,15.68
2023-04-14T22:59:53.674Z,17.55
2023-04-14T23:02:21.339Z,11.15
2023-04-14T23:04:48.375Z,11.68
2023-04-14T23:07:15.630Z,11.75
2023-04-14T23:09:42.365Z,12.02
2023-04-14T23:12:09.080Z,9.48
2023-04-14T23:14:35.836Z,17.08
2023-04-14T23:17:02.592Z,10.65
2023-04-14T23:19:29.356Z,10.02
2023-04-14T23:21:56.925Z,11.27
2023-04-14T23:24:23.744Z,8.50
2023-04-14T23:26:50.420Z,12.70
2023-04-14T23:29:17.170Z,14.00
2023-04-14T23:31:44.022Z,13.13
2023-04-14T23:34:11.139Z,11.95
2023-04-14T23:36:38.016Z,12.27
2023-04-14T23:39:05.470Z,13.82
2023-04-14T23:41:32.288Z,12.50
2023-04-14T23:43:59.236Z,8.35
2023-04-14T23:46:26.474Z,12.35
2023-04-14T23:48:53.453Z,14.02
2023-04-14T23:51:22.494Z,8.73
2023-04-14T23:53:50.123Z,10.25
2023-04-14T23:56:16.908Z,10.02
2023-04-14T23:58:43.823Z,12.52
